createdAt,value
2022-10-25T00:00:13.085Z,0.55
2022-10-25T00:03:35.289Z,0.60
2022-10-25T00:06:57.502Z,0.70
2022-10-25T00:10:22.249Z,0.80
2022-10-25T00:13:52.298Z,0.77
2022-10-25T00:17:14.504Z,0.75
2022-10-25T00:20:38.529Z,0.93
2022-10-25T00:24:00.745Z,0.75
2022-10-25T00:27:23.025Z,0.60
2022-10-25T00:30:45.182Z,0.77
2022-10-25T00:34:07.304Z,0.85
2022-10-25T00:37:29.434Z,0.75
2022-10-25T00:40:51.560Z,0.82
2022-10-25T00:44:38.501Z,0.70
2022-10-25T00:48:06.365Z,0.50
2022-10-25T00:51:39.121Z,0.70
2022-10-25T00:55:02.933Z,0.60
2022-10-25T00:58:28.029Z,1.00
2022-10-25T01:05:16.810Z,0.70
2022-10-25T01:08:41.076Z,0.52
2022-10-25T01:12:03.515Z,0.57
2022-10-25T01:15:32.777Z,0.50
2022-10-25T01:19:36.007Z,0.57
2022-10-25T01:23:22.797Z,0.57
2022-10-25T01:26:47.657Z,0.52
2022-10-25T01:30:23.086Z,0.82
2022-10-25T01:37:17.320Z,0.50
2022-10-25T01:40:51.735Z,0.63
2022-10-25T01:48:07.928Z,0.60
2022-10-25T01:51:30.434Z,0.80
2022-10-25T01:54:52.680Z,0.73
2022-10-25T01:58:23.901Z,0.57
2022-10-25T02:02:17.306Z,0.90
2022-10-25T02:05:42.185Z,0.60
2022-10-25T02:09:13.594Z,0.88
2022-10-25T02:13:04.389Z,0.80
2022-10-25T02:16:45.048Z,0.50
2022-10-25T02:20:08.833Z,0.75
2022-10-25T02:23:33.310Z,0.88
2022-10-25T02:26:56.366Z,0.60
2022-10-25T02:30:18.705Z,0.80
2022-10-25T02:33:43.293Z,0.60
2022-10-25T02:37:05.419Z,0.70
2022-10-25T02:40:27.897Z,0.60
2022-10-25T02:43:50.150Z,0.50
2022-10-25T02:47:12.458Z,0.70
2022-10-25T02:50:34.592Z,0.50
2022-10-25T02:53:56.837Z,0.47
2022-10-25T02:57:18.949Z,0.75
2022-10-25T03:00:42.088Z,0.90
2022-10-25T03:04:04.410Z,0.73
2022-10-25T03:07:26.686Z,0.35
2022-10-25T03:10:49.002Z,0.90
2022-10-25T03:14:11.215Z,0.60
2022-10-25T03:17:33.394Z,0.90
2022-10-25T03:20:59.956Z,0.90
2022-10-25T03:24:22.163Z,0.50
2022-10-25T03:27:44.491Z,0.60
2022-10-25T03:31:12.575Z,0.63
2022-10-25T03:34:34.754Z,0.70
2022-10-25T03:37:56.912Z,0.70
2022-10-25T03:41:19.034Z,0.82
2022-10-25T03:44:41.165Z,0.88
2022-10-25T03:48:03.326Z,0.73
2022-10-25T03:51:25.634Z,0.52
2022-10-25T03:54:47.830Z,0.70
2022-10-25T03:58:09.930Z,0.70
2022-10-25T04:01:32.225Z,0.85
2022-10-25T04:04:54.690Z,0.60
2022-10-25T04:08:16.848Z,0.82
2022-10-25T04:11:38.993Z,0.90
2022-10-25T04:15:01.224Z,0.60
2022-10-25T04:18:23.385Z,0.75
2022-10-25T04:21:45.494Z,0.75
2022-10-25T04:25:08.102Z,0.60
2022-10-25T04:28:30.278Z,0.80
2022-10-25T04:31:52.398Z,0.80
2022-10-25T04:35:14.654Z,0.60
2022-10-25T04:38:36.931Z,0.70
2022-10-25T04:41:59.167Z,0.70
2022-10-25T04:45:21.447Z,0.70
2022-10-25T04:48:43.776Z,0.75
2022-10-25T04:52:05.958Z,0.90
2022-10-25T04:55:28.192Z,0.80
2022-10-25T04:58:50.340Z,0.50
2022-10-25T05:02:12.576Z,0.80
2022-10-25T05:05:34.694Z,0.60
2022-10-25T05:08:56.882Z,1.08
2022-10-25T05:12:19.026Z,0.85
2022-10-25T05:15:41.180Z,0.85
2022-10-25T05:19:03.295Z,0.70
2022-10-25T05:22:26.061Z,0.60
2022-10-25T05:25:48.757Z,0.80
2022-10-25T05:29:12.696Z,0.80
2022-10-25T05:32:34.921Z,0.60
2022-10-25T05:36:03.573Z,0.80
2022-10-25T05:39:26.606Z,0.60
2022-10-25T05:42:48.907Z,0.85
2022-10-25T05:46:14.066Z,0.90
2022-10-25T05:49:39.678Z,0.68
2022-10-25T05:53:01.829Z,0.80
2022-10-25T05:56:27.243Z,1.13
2022-10-25T05:59:49.429Z,0.63
2022-10-25T06:03:11.567Z,0.80
2022-10-25T06:06:34.614Z,0.75
2022-10-25T06:09:56.813Z,0.75
2022-10-25T06:13:18.970Z,0.80
2022-10-25T06:16:41.204Z,0.50
2022-10-25T06:20:03.653Z,0.63
2022-10-25T06:23:25.780Z,0.80
2022-10-25T06:26:47.924Z,0.80
2022-10-25T06:30:10.701Z,0.95
2022-10-25T06:33:33.463Z,0.80
2022-10-25T06:36:55.612Z,0.80
2022-10-25T06:40:17.929Z,0.60
2022-10-25T06:43:40.579Z,0.50
2022-10-25T06:47:16.906Z,0.60
2022-10-25T06:50:39.470Z,1.13
2022-10-25T06:54:05.509Z,0.40
2022-10-25T06:57:27.663Z,0.80
2022-10-25T07:00:49.841Z,0.47
2022-10-25T07:04:12.027Z,0.47
2022-10-25T07:07:34.166Z,0.65
2022-10-25T07:10:56.858Z,0.50
2022-10-25T07:14:19.000Z,0.60
2022-10-25T07:17:41.208Z,0.80
2022-10-25T07:21:23.610Z,0.85
2022-10-25T07:24:45.725Z,0.63
2022-10-25T07:28:07.841Z,0.68
2022-10-25T07:31:32.627Z,0.60
2022-10-25T07:34:54.796Z,0.90
2022-10-25T07:38:17.264Z,0.63
2022-10-25T07:41:39.448Z,0.60
2022-10-25T07:45:01.597Z,0.30
2022-10-25T07:48:23.989Z,0.60
2022-10-25T07:51:46.283Z,0.50
2022-10-25T07:55:08.524Z,0.60
2022-10-25T07:58:30.895Z,0.60
2022-10-25T08:01:53.133Z,0.60
2022-10-25T08:05:15.425Z,0.50
2022-10-25T08:08:37.557Z,0.90
2022-10-25T08:11:59.702Z,0.93
2022-10-25T08:15:21.868Z,0.55
2022-10-25T08:18:44.156Z,0.52
2022-10-25T08:22:06.266Z,0.50
2022-10-25T08:25:29.120Z,0.65
2022-10-25T08:28:51.531Z,0.68
2022-10-25T08:32:14.161Z,0.57
2022-10-25T08:35:36.277Z,0.52
2022-10-25T08:38:58.431Z,0.50
2022-10-25T08:42:36.534Z,0.40
2022-10-25T08:46:02.955Z,0.80
2022-10-25T08:49:43.646Z,0.60
2022-10-25T08:53:14.483Z,0.43
2022-10-25T08:56:42.607Z,0.45
2022-10-25T09:00:20.883Z,0.80
2022-10-25T09:03:43.033Z,0.35
2022-10-25T09:07:31.709Z,0.70
2022-10-25T09:11:00.525Z,0.47
2022-10-25T09:14:46.543Z,0.80
2022-10-25T09:18:16.486Z,0.57
2022-10-25T09:21:57.214Z,0.73
2022-10-25T09:25:27.005Z,0.63
2022-10-25T09:29:02.499Z,0.85
2022-10-25T09:32:32.047Z,0.55
2022-10-25T09:35:56.586Z,0.50
2022-10-25T09:39:32.029Z,0.55
2022-10-25T09:46:25.339Z,0.63
2022-10-25T09:50:03.296Z,0.70
2022-10-25T09:53:25.459Z,0.75
2022-10-25T09:56:47.634Z,0.68
2022-10-25T10:00:14.236Z,0.60
2022-10-25T10:03:36.757Z,0.73
2022-10-25T10:07:07.862Z,0.80
2022-10-25T10:10:35.233Z,0.52
2022-10-25T10:14:04.991Z,0.52
2022-10-25T10:17:30.805Z,0.60
2022-10-25T10:20:57.876Z,0.65
2022-10-25T10:24:24.041Z,0.60
2022-10-25T10:27:47.881Z,0.65
2022-10-25T10:31:10.309Z,0.50
2022-10-25T10:34:52.317Z,0.70
2022-10-25T10:38:29.890Z,0.68
2022-10-25T10:42:15.088Z,0.70
2022-10-25T10:45:37.472Z,0.50
2022-10-25T10:49:02.470Z,0.63
2022-10-25T10:52:32.411Z,0.47
2022-10-25T10:55:56.849Z,0.50
2022-10-25T10:59:26.776Z,0.47
2022-10-25T11:02:50.181Z,0.55
2022-10-25T11:06:16.153Z,0.60
2022-10-25T11:09:38.345Z,0.60
2022-10-25T11:13:18.854Z,0.50
2022-10-25T11:17:00.345Z,0.50
2022-10-25T11:20:36.784Z,0.55
2022-10-25T11:24:24.684Z,0.57
2022-10-25T11:27:53.141Z,0.50
2022-10-25T11:31:15.278Z,0.50
2022-10-25T11:34:56.641Z,0.50
2022-10-25T11:38:35.431Z,0.57
2022-10-25T11:42:11.994Z,0.60
2022-10-25T11:45:55.884Z,0.65
2022-10-25T11:49:25.582Z,0.50
2022-10-25T11:52:57.279Z,0.57
2022-10-25T11:56:41.438Z,0.60
2022-10-25T12:00:20.662Z,0.50
2022-10-25T12:04:08.971Z,0.70
2022-10-25T12:07:59.464Z,0.70
2022-10-25T12:11:27.961Z,0.80
2022-10-25T12:14:56.042Z,0.60
2022-10-25T12:18:26.470Z,0.50
2022-10-25T12:22:02.066Z,0.50
2022-10-25T12:25:29.670Z,0.55
2022-10-25T12:28:52.642Z,0.63
2022-10-25T12:32:23.306Z,0.75
2022-10-25T12:35:50.830Z,0.60
2022-10-25T12:39:18.245Z,0.73
2022-10-25T12:42:46.529Z,0.50
2022-10-25T12:46:41.356Z,0.70
2022-10-25T12:50:50.120Z,0.50
2022-10-25T12:54:23.543Z,0.52
2022-10-25T12:57:54.056Z,0.68
2022-10-25T13:01:34.053Z,0.40
2022-10-25T13:05:17.119Z,0.60
2022-10-25T13:08:40.895Z,0.60
2022-10-25T13:12:23.601Z,0.57
2022-10-25T13:15:51.534Z,0.63
2022-10-25T13:19:25.962Z,0.70
2022-10-25T13:22:58.307Z,0.80
2022-10-25T13:26:25.964Z,0.57
2022-10-25T13:30:06.662Z,0.60
2022-10-25T13:33:33.181Z,0.50
2022-10-25T13:37:00.958Z,0.60
2022-10-25T13:40:30.826Z,0.40
2022-10-25T13:44:04.972Z,0.60
2022-10-25T13:47:42.365Z,0.60
2022-10-25T13:51:12.642Z,0.60
2022-10-25T13:54:50.631Z,0.50
2022-10-25T13:58:48.484Z,0.80
2022-10-25T14:02:19.949Z,0.57
2022-10-25T14:05:56.494Z,0.50
2022-10-25T14:09:18.571Z,0.57
2022-10-25T14:12:45.292Z,0.68
2022-10-25T14:16:27.712Z,0.65
2022-10-25T14:19:52.833Z,0.70
2022-10-25T14:26:53.688Z,0.75
2022-10-25T14:30:30.906Z,0.47
2022-10-25T14:33:56.023Z,0.85
2022-10-25T14:40:40.240Z,0.98
2022-10-25T14:44:02.675Z,1.00
2022-10-25T14:47:30.899Z,1.02
2022-10-25T14:50:54.548Z,0.88
2022-10-25T14:54:16.617Z,0.85
2022-10-25T14:57:38.936Z,0.73
2022-10-25T15:01:03.196Z,0.80
2022-10-25T15:04:28.261Z,0.82
2022-10-25T15:07:58.329Z,1.08
2022-10-25T15:11:20.649Z,0.70
2022-10-25T15:14:43.309Z,0.70
2022-10-25T15:18:05.451Z,0.93
2022-10-25T15:21:44.266Z,0.60
2022-10-25T15:25:33.193Z,0.77
2022-10-25T15:28:59.992Z,1.20
2022-10-25T15:32:25.349Z,0.73
2022-10-25T15:35:53.249Z,0.82
2022-10-25T15:39:32.482Z,1.05
2022-10-25T15:42:54.766Z,0.70
2022-10-25T15:46:33.108Z,1.00
2022-10-25T15:49:55.773Z,0.93
2022-10-25T15:53:18.114Z,0.77
2022-10-25T15:56:40.511Z,0.80
2022-10-25T16:00:02.833Z,0.90
2022-10-25T16:03:34.274Z,1.13
2022-10-25T16:06:56.386Z,0.90
2022-10-25T16:10:20.121Z,1.08
2022-10-25T16:13:44.859Z,0.90
2022-10-25T16:17:08.594Z,0.90
2022-10-25T16:20:31.609Z,0.98
2022-10-25T16:23:53.696Z,1.10
2022-10-25T16:27:15.900Z,0.80
2022-10-25T16:30:40.549Z,0.82
2022-10-25T16:34:05.151Z,1.00
2022-10-25T16:37:27.305Z,0.95
2022-10-25T16:40:51.100Z,0.80
2022-10-25T16:44:15.950Z,0.73
2022-10-25T16:47:38.201Z,0.88
2022-10-25T16:51:00.324Z,0.88
2022-10-25T16:54:24.348Z,1.17
2022-10-25T17:01:19.146Z,0.88
2022-10-25T17:04:41.418Z,0.88
2022-10-25T17:08:03.770Z,0.95
2022-10-25T17:11:26.030Z,1.02
2022-10-25T17:14:48.212Z,1.50
2022-10-25T17:18:13.965Z,3.50
2022-10-25T17:21:37.614Z,5.00
2022-10-25T17:24:59.805Z,7.88
2022-10-25T17:28:21.911Z,6.50
2022-10-25T17:31:45.165Z,6.82
2022-10-25T17:35:07.487Z,9.35
2022-10-25T17:38:29.624Z,8.80
2022-10-25T17:41:51.756Z,7.35
2022-10-25T17:45:14.120Z,7.63
2022-10-25T17:48:36.259Z,6.25
2022-10-25T17:51:58.422Z,7.00
2022-10-25T17:55:20.544Z,6.25
2022-10-25T17:58:44.128Z,5.72
2022-10-25T18:02:06.728Z,6.28
2022-10-25T18:05:29.077Z,5.28
2022-10-25T18:08:56.466Z,5.32
2022-10-25T18:12:18.592Z,4.40
2022-10-25T18:15:40.753Z,4.38
2022-10-25T18:19:05.099Z,5.00
2022-10-25T18:22:27.229Z,4.45
2022-10-25T18:25:52.876Z,4.60
2022-10-25T18:29:15.118Z,3.13
2022-10-25T18:32:37.358Z,3.03
2022-10-25T18:36:05.008Z,3.50
2022-10-25T18:39:27.278Z,3.50
2022-10-25T18:42:50.666Z,2.85
2022-10-25T18:46:13.066Z,2.95
2022-10-25T18:49:35.337Z,2.63
2022-10-25T18:52:57.474Z,2.90
2022-10-25T18:56:22.025Z,2.67
2022-10-25T18:59:44.628Z,2.75
2022-10-25T19:03:07.813Z,3.00
2022-10-25T19:06:31.041Z,2.75
2022-10-25T19:09:53.277Z,2.35
2022-10-25T19:13:19.326Z,2.28
2022-10-25T19:16:42.286Z,2.45
2022-10-25T19:20:05.461Z,2.22
2022-10-25T19:23:27.629Z,2.40
2022-10-25T19:26:50.316Z,2.20
2022-10-25T19:30:13.102Z,1.92
2022-10-25T19:33:35.499Z,1.90
2022-10-25T19:37:01.465Z,1.63
2022-10-25T19:40:23.798Z,1.90
2022-10-25T19:43:47.006Z,1.75
2022-10-25T19:47:09.327Z,1.77
2022-10-25T19:50:32.959Z,1.95
2022-10-25T19:53:55.210Z,2.00
2022-10-25T19:57:17.340Z,1.63
2022-10-25T20:00:39.459Z,1.52
2022-10-25T20:04:01.726Z,1.65
2022-10-25T20:07:23.923Z,1.42
2022-10-25T20:10:46.014Z,1.50
2022-10-25T20:14:09.062Z,1.83
2022-10-25T20:17:31.204Z,1.65
2022-10-25T20:20:58.994Z,1.60
2022-10-25T20:24:21.145Z,1.60
2022-10-25T20:27:43.291Z,1.48
2022-10-25T20:31:05.700Z,1.55
2022-10-25T20:34:28.004Z,1.35
2022-10-25T20:37:50.346Z,1.38
2022-10-25T20:41:21.180Z,1.10
2022-10-25T20:44:43.282Z,1.25
2022-10-25T20:48:05.610Z,1.02
2022-10-25T20:51:28.339Z,1.08
2022-10-25T20:54:50.500Z,1.40
2022-10-25T20:58:12.663Z,1.20
2022-10-25T21:01:34.996Z,1.30
2022-10-25T21:04:57.198Z,0.98
2022-10-25T21:08:19.690Z,0.90
2022-10-25T21:11:41.809Z,1.25
2022-10-25T21:15:06.922Z,1.30
2022-10-25T21:18:33.390Z,1.13
2022-10-25T21:21:55.637Z,0.70
2022-10-25T21:25:17.863Z,1.20
2022-10-25T21:28:41.396Z,1.20
2022-10-25T21:32:03.682Z,1.15
2022-10-25T21:35:25.854Z,1.23
2022-10-25T21:38:48.117Z,1.17
2022-10-25T21:42:10.390Z,1.00
2022-10-25T21:45:32.529Z,1.38
2022-10-25T21:48:54.826Z,1.10
2022-10-25T21:52:16.961Z,0.95
2022-10-25T21:55:39.777Z,1.05
2022-10-25T21:59:02.150Z,1.05
2022-10-25T22:02:24.495Z,0.90
2022-10-25T22:05:46.781Z,1.30
2022-10-25T22:09:08.921Z,0.88
2022-10-25T22:12:31.054Z,1.10
2022-10-25T22:16:00.903Z,1.30
2022-10-25T22:22:50.763Z,0.95
2022-10-25T22:26:15.463Z,1.05
2022-10-25T22:29:37.642Z,0.90
2022-10-25T22:32:59.739Z,1.25
2022-10-25T22:36:24.174Z,1.02
2022-10-25T22:39:46.277Z,1.10
2022-10-25T22:43:08.439Z,0.82
2022-10-25T22:46:34.049Z,0.98
2022-10-25T22:49:56.167Z,1.00
2022-10-25T22:53:18.874Z,1.10
2022-10-25T22:56:41.027Z,1.02
2022-10-25T23:00:03.298Z,1.13
2022-10-25T23:03:25.443Z,0.85
2022-10-25T23:06:47.559Z,1.05
2022-10-25T23:10:09.829Z,1.10
2022-10-25T23:13:33.538Z,0.93
2022-10-25T23:16:55.665Z,0.88
2022-10-25T23:20:17.833Z,0.80
2022-10-25T23:23:39.988Z,0.70
2022-10-25T23:27:02.127Z,0.88
2022-10-25T23:30:26.822Z,0.93
2022-10-25T23:33:53.689Z,0.80
2022-10-25T23:37:15.879Z,1.00
2022-10-25T23:40:38.115Z,0.90
2022-10-25T23:44:00.317Z,1.00
2022-10-25T23:47:22.485Z,1.05
2022-10-25T23:50:44.672Z,1.02
2022-10-25T23:54:09.523Z,0.90
2022-10-25T23:57:31.720Z,1.10
